sensor_id;sensor_type;location;lat;lon;timestamp;temperature;humidity
74484;SHT31;62942;52.462;10.846;2022-08-27T00:00:07;17.6;98.2
74484;SHT31;62942;52.462;10.846;2022-08-27T00:01:15;17.6;98.2
74484;SHT31;62942;52.462;10.846;2022-08-27T00:02:15;17.6;98.4
74484;SHT31;62942;52.462;10.846;2022-08-27T00:03:25;17.6;98.4
74484;SHT31;62942;52.462;10.846;2022-08-27T00:04:35;17.5;98.4
74484;SHT31;62942;52.462;10.846;2022-08-27T00:05:45;17.5;98.4
74484;SHT31;62942;52.462;10.846;2022-08-27T00:06:55;17.5;98.5
74484;SHT31;62942;52.462;10.846;2022-08-27T00:07:55;17.5;98.4
74484;SHT31;62942;52.462;10.846;2022-08-27T00:08:55;17.5;98.4
74484;SHT31;62942;52.462;10.846;2022-08-27T00:10:05;17.5;98.4
74484;SHT31;62942;52.462;10.846;2022-08-27T00:11:16;17.5;98.5
74484;SHT31;62942;52.462;10.846;2022-08-27T00:12:25;17.5;98.5
74484;SHT31;62942;52.462;10.846;2022-08-27T00:12:35;17.5;98.5
74484;SHT31;62942;52.462;10.846;2022-08-27T00:13:35;17.5;98.5
74484;SHT31;62942;52.462;10.846;2022-08-27T00:14:45;17.5;98.5
74484;SHT31;62942;52.462;10.846;2022-08-27T00:15:15;17.5;98.5
74484;SHT31;62942;52.462;10.846;2022-08-27T00:16:15;17.5;98.5
74484;SHT31;62942;52.462;10.846;2022-08-27T00:16:25;17.5;98.5
74484;SHT31;62942;52.462;10.846;2022-08-27T00:17:25;17.5;98.5
74484;SHT31;62942;52.462;10.846;2022-08-27T00:17:45;17.5;98.6
74484;SHT31;62942;52.462;10.846;2022-08-27T00:18:55;17.5;98.6
74484;SHT31;62942;52.462;10.846;2022-08-27T00:20:05;17.5;98.7
74484;SHT31;62942;52.462;10.846;2022-08-27T00:21:05;17.5;98.8
74484;SHT31;62942;52.462;10.846;2022-08-27T00:22:15;17.5;98.7
74484;SHT31;62942;52.462;10.846;2022-08-27T00:23:15;17.5;98.8
74484;SHT31;62942;52.462;10.846;2022-08-27T00:24:25;17.5;98.7
74484;SHT31;62942;52.462;10.846;2022-08-27T00:25:35;17.5;98.8
74484;SHT31;62942;52.462;10.846;2022-08-27T00:26:35;17.6;98.8
74484;SHT31;62942;52.462;10.846;2022-08-27T00:27:45;17.6;98.8
74484;SHT31;62942;52.462;10.846;2022-08-27T00:28:45;17.6;98.8
74484;SHT31;62942;52.462;10.846;2022-08-27T00:29:55;17.5;98.8
74484;SHT31;62942;52.462;10.846;2022-08-27T00:31:05;17.6;98.7
74484;SHT31;62942;52.462;10.846;2022-08-27T00:32:05;17.6;98.7
74484;SHT31;62942;52.462;10.846;2022-08-27T00:33:05;17.6;98.9
74484;SHT31;62942;52.462;10.846;2022-08-27T00:34:05;17.6;98.8
74484;SHT31;62942;52.462;10.846;2022-08-27T00:35:15;17.6;98.8
74484;SHT31;62942;52.462;10.846;2022-08-27T00:36:25;17.6;98.9
74484;SHT31;62942;52.462;10.846;2022-08-27T00:37:25;17.7;98.9
74484;SHT31;62942;52.462;10.846;2022-08-27T00:38:35;17.7;98.9
74484;SHT31;62942;52.462;10.846;2022-08-27T00:39:35;17.7;98.9
74484;SHT31;62942;52.462;10.846;2022-08-27T00:40:45;17.8;99.1
74484;SHT31;62942;52.462;10.846;2022-08-27T00:41:45;17.8;99.2
74484;SHT31;62942;52.462;10.846;2022-08-27T00:42:55;17.8;99.2
74484;SHT31;62942;52.462;10.846;2022-08-27T00:43:55;17.8;99.1
74484;SHT31;62942;52.462;10.846;2022-08-27T00:45:05;17.8;99.1
74484;SHT31;62942;52.462;10.846;2022-08-27T00:46:07;17.8;99.1
74484;SHT31;62942;52.462;10.846;2022-08-27T00:47:16;17.9;99.2
74484;SHT31;62942;52.462;10.846;2022-08-27T00:48:15;17.8;99.2
74484;SHT31;62942;52.462;10.846;2022-08-27T00:49:26;17.9;99.2
74484;SHT31;62942;52.462;10.846;2022-08-27T00:50:27;17.9;99.2
74484;SHT31;62942;52.462;10.846;2022-08-27T00:51:35;17.9;99.2
74484;SHT31;62942;52.462;10.846;2022-08-27T00:52:35;18;99.2
74484;SHT31;62942;52.462;10.846;2022-08-27T00:53:35;18;99.2
74484;SHT31;62942;52.462;10.846;2022-08-27T00:54:45;18;99.3
74484;SHT31;62942;52.462;10.846;2022-08-27T00:55:55;18.1;99.2
74484;SHT31;62942;52.462;10.846;2022-08-27T00:57:05;18.1;99.3
74484;SHT31;62942;52.462;10.846;2022-08-27T00:58:08;18.2;99.2
74484;SHT31;62942;52.462;10.846;2022-08-27T00:59:16;18.1;99.3
74484;SHT31;62942;52.462;10.846;2022-08-27T01:00:15;18.2;99.3
74484;SHT31;62942;52.462;10.846;2022-08-27T01:01:26;18.2;99.3
74484;SHT31;62942;52.462;10.846;2022-08-27T01:02:25;18.2;99.3
74484;SHT31;62942;52.462;10.846;2022-08-27T01:03:35;18.2;99.3
74484;SHT31;62942;52.462;10.846;2022-08-27T01:04:35;18.3;99.3
74484;SHT31;62942;52.462;10.846;2022-08-27T01:05:45;18.3;99.3
74484;SHT31;62942;52.462;10.846;2022-08-27T01:06:55;18.3;99.3
74484;SHT31;62942;52.462;10.846;2022-08-27T01:07:55;18.4;99.2
74484;SHT31;62942;52.462;10.846;2022-08-27T01:09:06;18.4;99.3
74484;SHT31;62942;52.462;10.846;2022-08-27T01:10:06;18.4;99.3
74484;SHT31;62942;52.462;10.846;2022-08-27T01:11:05;18.4;99.2
74484;SHT31;62942;52.462;10.846;2022-08-27T01:12:15;18.4;99.2
74484;SHT31;62942;52.462;10.846;2022-08-27T01:13:15;18.5;99.2
74484;SHT31;62942;52.462;10.846;2022-08-27T01:14:25;18.5;99.2
74484;SHT31;62942;52.462;10.846;2022-08-27T01:15:35;18.5;99.2
74484;SHT31;62942;52.462;10.846;2022-08-27T01:16:46;18.5;99.2
74484;SHT31;62942;52.462;10.846;2022-08-27T01:17:45;18.5;99.1
74484;SHT31;62942;52.462;10.846;2022-08-27T01:18:56;18.5;99.1
74484;SHT31;62942;52.462;10.846;2022-08-27T01:20:06;18.5;99.1
74484;SHT31;62942;52.462;10.846;2022-08-27T01:21:17;18.5;99.1
74484;SHT31;62942;52.462;10.846;2022-08-27T01:22:17;18.6;99.1
74484;SHT31;62942;52.462;10.846;2022-08-27T01:23:26;18.6;99.1
74484;SHT31;62942;52.462;10.846;2022-08-27T01:24:36;18.6;99.1
74484;SHT31;62942;52.462;10.846;2022-08-27T01:25:35;18.6;99
74484;SHT31;62942;52.462;10.846;2022-08-27T01:26:45;18.6;99
74484;SHT31;62942;52.462;10.846;2022-08-27T01:27:55;18.6;99
74484;SHT31;62942;52.462;10.846;2022-08-27T01:28:55;18.6;99
74484;SHT31;62942;52.462;10.846;2022-08-27T01:30:05;18.6;99
74484;SHT31;62942;52.462;10.846;2022-08-27T01:31:15;18.6;99
74484;SHT31;62942;52.462;10.846;2022-08-27T01:32:16;18.7;99
74484;SHT31;62942;52.462;10.846;2022-08-27T01:33:25;18.7;98.9
74484;SHT31;62942;52.462;10.846;2022-08-27T01:34:25;18.7;98.9
74484;SHT31;62942;52.462;10.846;2022-08-27T01:35:35;18.7;98.9
74484;SHT31;62942;52.462;10.846;2022-08-27T01:36:45;18.7;98.8
74484;SHT31;62942;52.462;10.846;2022-08-27T01:37:45;18.7;98.9
74484;SHT31;62942;52.462;10.846;2022-08-27T01:38:55;18.7;98.8
74484;SHT31;62942;52.462;10.846;2022-08-27T01:40:05;18.7;98.8
74484;SHT31;62942;52.462;10.846;2022-08-27T01:41:15;18.7;98.8
74484;SHT31;62942;52.462;10.846;2022-08-27T01:42:16;18.7;98.8
74484;SHT31;62942;52.462;10.846;2022-08-27T01:43:25;18.7;98.7
74484;SHT31;62942;52.462;10.846;2022-08-27T01:44:44;18.7;98.8
74484;SHT31;62942;52.462;10.846;2022-08-27T01:45:46;18.7;98.8
74484;SHT31;62942;52.462;10.846;2022-08-27T01:46:55;18.7;98.8
74484;SHT31;62942;52.462;10.846;2022-08-27T01:48:05;18.8;98.7
74484;SHT31;62942;52.462;10.846;2022-08-27T01:49:15;18.8;98.7
74484;SHT31;62942;52.462;10.846;2022-08-27T01:50:26;18.8;98.7
74484;SHT31;62942;52.462;10.846;2022-08-27T01:51:35;18.8;98.6
74484;SHT31;62942;52.462;10.846;2022-08-27T01:52:45;18.8;98.5
74484;SHT31;62942;52.462;10.846;2022-08-27T01:53:55;18.8;98.5
74484;SHT31;62942;52.462;10.846;2022-08-27T01:55:05;18.8;98.5
74484;SHT31;62942;52.462;10.846;2022-08-27T01:56:15;18.8;98.4
74484;SHT31;62942;52.462;10.846;2022-08-27T01:57:25;18.9;98.5
74484;SHT31;62942;52.462;10.846;2022-08-27T01:58:25;18.9;98.4
74484;SHT31;62942;52.462;10.846;2022-08-27T01:59:35;18.9;98.3
74484;SHT31;62942;52.462;10.846;2022-08-27T02:00:46;18.9;98.3
74484;SHT31;62942;52.462;10.846;2022-08-27T02:01:45;18.9;98.3
74484;SHT31;62942;52.462;10.846;2022-08-27T02:02:55;18.9;98.2
74484;SHT31;62942;52.462;10.846;2022-08-27T02:04:05;18.9;98.2
74484;SHT31;62942;52.462;10.846;2022-08-27T02:05:05;18.9;98.2
74484;SHT31;62942;52.462;10.846;2022-08-27T02:06:06;18.9;98.2
74484;SHT31;62942;52.462;10.846;2022-08-27T02:07:05;18.9;98.1
74484;SHT31;62942;52.462;10.846;2022-08-27T02:08:15;19;98.1
74484;SHT31;62942;52.462;10.846;2022-08-27T02:09:15;19;98.1
74484;SHT31;62942;52.462;10.846;2022-08-27T02:10:26;19;97.9
74484;SHT31;62942;52.462;10.846;2022-08-27T02:11:25;19;97.9
74484;SHT31;62942;52.462;10.846;2022-08-27T02:12:35;19;97.9
74484;SHT31;62942;52.462;10.846;2022-08-27T02:13:35;19;97.9
74484;SHT31;62942;52.462;10.846;2022-08-27T02:14:34;19;97.9
74484;SHT31;62942;52.462;10.846;2022-08-27T02:15:45;19;97.9
74484;SHT31;62942;52.462;10.846;2022-08-27T02:16:44;19;97.8
74484;SHT31;62942;52.462;10.846;2022-08-27T02:17:55;19;97.8
74484;SHT31;62942;52.462;10.846;2022-08-27T02:19:04;19;97.8
74484;SHT31;62942;52.462;10.846;2022-08-27T02:20:05;19.1;97.8
74484;SHT31;62942;52.462;10.846;2022-08-27T02:21:14;19;97.7
74484;SHT31;62942;52.462;10.846;2022-08-27T02:22:24;19;97.8
74484;SHT31;62942;52.462;10.846;2022-08-27T02:23:35;19.1;97.9
74484;SHT31;62942;52.462;10.846;2022-08-27T02:24:44;19.1;97.8
74484;SHT31;62942;52.462;10.846;2022-08-27T02:25:54;19.1;97.9
74484;SHT31;62942;52.462;10.846;2022-08-27T02:27:05;19.1;97.7
74484;SHT31;62942;52.462;10.846;2022-08-27T02:28:14;19.1;97.8
74484;SHT31;62942;52.462;10.846;2022-08-27T02:29:24;19.1;97.8
74484;SHT31;62942;52.462;10.846;2022-08-27T02:30:25;19.1;97.7
74484;SHT31;62942;52.462;10.846;2022-08-27T02:31:35;19.1;97.6
74484;SHT31;62942;52.462;10.846;2022-08-27T02:32:45;19.1;97.6
74484;SHT31;62942;52.462;10.846;2022-08-27T02:33:54;19.1;97.6
74484;SHT31;62942;52.462;10.846;2022-08-27T02:34:55;19.1;97.6
74484;SHT31;62942;52.462;10.846;2022-08-27T02:36:05;19.1;97.6
74484;SHT31;62942;52.462;10.846;2022-08-27T02:37:15;19.1;97.5
74484;SHT31;62942;52.462;10.846;2022-08-27T02:38:24;19.1;97.6
74484;SHT31;62942;52.462;10.846;2022-08-27T02:39:34;19.1;97.5
74484;SHT31;62942;52.462;10.846;2022-08-27T02:40:35;19.1;97.5
74484;SHT31;62942;52.462;10.846;2022-08-27T02:41:44;19.1;97.5
74484;SHT31;62942;52.462;10.846;2022-08-27T02:42:54;19.2;97.5
74484;SHT31;62942;52.462;10.846;2022-08-27T02:44:05;19.1;97.5
74484;SHT31;62942;52.462;10.846;2022-08-27T02:45:15;19.2;97.6
74484;SHT31;62942;52.462;10.846;2022-08-27T02:46:24;19.2;97.5
74484;SHT31;62942;52.462;10.846;2022-08-27T02:47:35;19.2;97.5
74484;SHT31;62942;52.462;10.846;2022-08-27T02:48:35;19.1;97.4
74484;SHT31;62942;52.462;10.846;2022-08-27T02:49:34;19.2;97.5
74484;SHT31;62942;52.462;10.846;2022-08-27T02:50:44;19.2;97.5
74484;SHT31;62942;52.462;10.846;2022-08-27T02:51:54;19.2;97.5
74484;SHT31;62942;52.462;10.846;2022-08-27T02:52:54;19.2;97.5
74484;SHT31;62942;52.462;10.846;2022-08-27T02:54:05;19.1;97.5
74484;SHT31;62942;52.462;10.846;2022-08-27T02:55:14;19.2;97.5
74484;SHT31;62942;52.462;10.846;2022-08-27T02:56:24;19.1;97.5
74484;SHT31;62942;52.462;10.846;2022-08-27T02:57:34;19.1;97.5
74484;SHT31;62942;52.462;10.846;2022-08-27T02:58:44;19.2;97.5
74484;SHT31;62942;52.462;10.846;2022-08-27T02:59:54;19.2;97.5
74484;SHT31;62942;52.462;10.846;2022-08-27T03:01:05;19.1;97.4
74484;SHT31;62942;52.462;10.846;2022-08-27T03:02:15;19.2;97.4
74484;SHT31;62942;52.462;10.846;2022-08-27T03:03:14;19.2;97.5
74484;SHT31;62942;52.462;10.846;2022-08-27T03:04:24;19.2;97.4
74484;SHT31;62942;52.462;10.846;2022-08-27T03:05:34;19.2;97.5
74484;SHT31;62942;52.462;10.846;2022-08-27T03:06:44;19.2;97.5
74484;SHT31;62942;52.462;10.846;2022-08-27T03:07:54;19.2;97.4
74484;SHT31;62942;52.462;10.846;2022-08-27T03:09:04;19.1;97.4
74484;SHT31;62942;52.462;10.846;2022-08-27T03:10:05;19.2;97.4
74484;SHT31;62942;52.462;10.846;2022-08-27T03:11:14;19.2;97.4
74484;SHT31;62942;52.462;10.846;2022-08-27T03:12:14;19.2;97.4
74484;SHT31;62942;52.462;10.846;2022-08-27T03:13:25;19.1;97.4
74484;SHT31;62942;52.462;10.846;2022-08-27T03:14:34;19.2;97.4
74484;SHT31;62942;52.462;10.846;2022-08-27T03:15:44;19.1;97.4
74484;SHT31;62942;52.462;10.846;2022-08-27T03:16:54;19.1;97.3
74484;SHT31;62942;52.462;10.846;2022-08-27T03:17:54;19.1;97.3
74484;SHT31;62942;52.462;10.846;2022-08-27T03:18:54;19.1;97.4
74484;SHT31;62942;52.462;10.846;2022-08-27T03:20:05;19.1;97.3
74484;SHT31;62942;52.462;10.846;2022-08-27T03:21:04;19.1;97.2
74484;SHT31;62942;52.462;10.846;2022-08-27T03:22:04;19.1;97.3
74484;SHT31;62942;52.462;10.846;2022-08-27T03:23:15;19.1;97.3
74484;SHT31;62942;52.462;10.846;2022-08-27T03:24:24;19.1;97.2
74484;SHT31;62942;52.462;10.846;2022-08-27T03:25:34;19.1;97.3
74484;SHT31;62942;52.462;10.846;2022-08-27T03:26:44;19.1;97.2
74484;SHT31;62942;52.462;10.846;2022-08-27T03:27:54;19;97.2
74484;SHT31;62942;52.462;10.846;2022-08-27T03:29:04;19;97.3
74484;SHT31;62942;52.462;10.846;2022-08-27T03:30:06;19.1;97.3
74484;SHT31;62942;52.462;10.846;2022-08-27T03:31:16;19;97.3
74484;SHT31;62942;52.462;10.846;2022-08-27T03:32:24;19;97.3
74484;SHT31;62942;52.462;10.846;2022-08-27T03:33:25;19;97.4
74484;SHT31;62942;52.462;10.846;2022-08-27T03:34:34;19;97.3
74484;SHT31;62942;52.462;10.846;2022-08-27T03:35:44;19;97.3
74484;SHT31;62942;52.462;10.846;2022-08-27T03:36:44;19;97.3
74484;SHT31;62942;52.462;10.846;2022-08-27T03:37:54;19;97.3
74484;SHT31;62942;52.462;10.846;2022-08-27T03:39:04;19;97.4
74484;SHT31;62942;52.462;10.846;2022-08-27T03:40:15;19;97.4
74484;SHT31;62942;52.462;10.846;2022-08-27T03:41:24;19;97.3
74484;SHT31;62942;52.462;10.846;2022-08-27T03:42:35;19;97.3
74484;SHT31;62942;52.462;10.846;2022-08-27T03:43:44;19;97.3
74484;SHT31;62942;52.462;10.846;2022-08-27T03:44:44;19;97.4
74484;SHT31;62942;52.462;10.846;2022-08-27T03:45:54;19;97.4
74484;SHT31;62942;52.462;10.846;2022-08-27T03:47:04;19;97.4
74484;SHT31;62942;52.462;10.846;2022-08-27T03:48:05;18.9;97.4
74484;SHT31;62942;52.462;10.846;2022-08-27T03:49:15;19;97.4
74484;SHT31;62942;52.462;10.846;2022-08-27T03:50:24;18.9;97.4
74484;SHT31;62942;52.462;10.846;2022-08-27T03:51:35;18.9;97.4
74484;SHT31;62942;52.462;10.846;2022-08-27T03:52:44;18.9;97.4
74484;SHT31;62942;52.462;10.846;2022-08-27T03:53:54;18.9;97.4
74484;SHT31;62942;52.462;10.846;2022-08-27T03:55:06;18.9;97.5
74484;SHT31;62942;52.462;10.846;2022-08-27T03:56:14;18.9;97.5
74484;SHT31;62942;52.462;10.846;2022-08-27T03:57:14;18.9;97.5
74484;SHT31;62942;52.462;10.846;2022-08-27T03:58:24;18.9;97.4
74484;SHT31;62942;52.462;10.846;2022-08-27T03:59:24;18.9;97.4
74484;SHT31;62942;52.462;10.846;2022-08-27T04:00:24;18.9;97.4
74484;SHT31;62942;52.462;10.846;2022-08-27T04:01:34;18.9;97.4
74484;SHT31;62942;52.462;10.846;2022-08-27T04:02:44;18.9;97.4
74484;SHT31;62942;52.462;10.846;2022-08-27T04:03:54;18.9;97.5
74484;SHT31;62942;52.462;10.846;2022-08-27T04:04:54;18.9;97.4
74484;SHT31;62942;52.462;10.846;2022-08-27T04:05:55;18.9;97.4
74484;SHT31;62942;52.462;10.846;2022-08-27T04:07:04;18.9;97.4
74484;SHT31;62942;52.462;10.846;2022-08-27T04:08:14;18.9;97.4
74484;SHT31;62942;52.462;10.846;2022-08-27T04:09:25;18.9;97.4
74484;SHT31;62942;52.462;10.846;2022-08-27T04:10:37;18.9;97.4
74484;SHT31;62942;52.462;10.846;2022-08-27T04:11:35;18.8;97.3
74484;SHT31;62942;52.462;10.846;2022-08-27T04:12:35;18.9;97.4
74484;SHT31;62942;52.462;10.846;2022-08-27T04:13:44;18.8;97.3
74484;SHT31;62942;52.462;10.846;2022-08-27T04:14:44;18.9;97.3
74484;SHT31;62942;52.462;10.846;2022-08-27T04:15:45;18.9;97.2
74484;SHT31;62942;52.462;10.846;2022-08-27T04:16:55;18.8;97.2
74484;SHT31;62942;52.462;10.846;2022-08-27T04:18:04;18.9;97.2
74484;SHT31;62942;52.462;10.846;2022-08-27T04:19:04;18.8;97.2
74484;SHT31;62942;52.462;10.846;2022-08-27T04:20:14;18.9;97.2
74484;SHT31;62942;52.462;10.846;2022-08-27T04:21:24;18.8;97.3
74484;SHT31;62942;52.462;10.846;2022-08-27T04:22:35;18.8;97.2
74484;SHT31;62942;52.462;10.846;2022-08-27T04:23:44;18.8;97.3
74484;SHT31;62942;52.462;10.846;2022-08-27T04:24:54;18.9;97.2
74484;SHT31;62942;52.462;10.846;2022-08-27T04:26:05;18.8;97.2
74484;SHT31;62942;52.462;10.846;2022-08-27T04:27:14;18.8;97.3
74484;SHT31;62942;52.462;10.846;2022-08-27T04:28:24;18.8;97.2
74484;SHT31;62942;52.462;10.846;2022-08-27T04:29:34;18.8;97.2
74484;SHT31;62942;52.462;10.846;2022-08-27T04:30:45;18.8;97.2
74484;SHT31;62942;52.462;10.846;2022-08-27T04:31:55;18.8;97.2
74484;SHT31;62942;52.462;10.846;2022-08-27T04:33:04;18.8;97.2
74484;SHT31;62942;52.462;10.846;2022-08-27T04:34:04;18.8;97.2
74484;SHT31;62942;52.462;10.846;2022-08-27T04:35:04;18.8;97.2
74484;SHT31;62942;52.462;10.846;2022-08-27T04:36:14;18.8;97.1
74484;SHT31;62942;52.462;10.846;2022-08-27T04:37:14;18.8;97.2
74484;SHT31;62942;52.462;10.846;2022-08-27T04:38:24;18.8;97.1
74484;SHT31;62942;52.462;10.846;2022-08-27T04:39:25;18.8;97.2
74484;SHT31;62942;52.462;10.846;2022-08-27T04:40:34;18.8;97
74484;SHT31;62942;52.462;10.846;2022-08-27T04:41:34;18.8;97
74484;SHT31;62942;52.462;10.846;2022-08-27T04:42:44;18.8;97
74484;SHT31;62942;52.462;10.846;2022-08-27T04:43:55;18.8;97
74484;SHT31;62942;52.462;10.846;2022-08-27T04:45:04;18.8;97
74484;SHT31;62942;52.462;10.846;2022-08-27T04:46:05;18.8;96.9
74484;SHT31;62942;52.462;10.846;2022-08-27T04:47:14;18.8;96.9
74484;SHT31;62942;52.462;10.846;2022-08-27T04:48:15;18.7;96.9
74484;SHT31;62942;52.462;10.846;2022-08-27T04:49:25;18.7;97
74484;SHT31;62942;52.462;10.846;2022-08-27T04:50:37;18.7;97
74484;SHT31;62942;52.462;10.846;2022-08-27T04:51:45;18.7;97.1
74484;SHT31;62942;52.462;10.846;2022-08-27T04:52:44;18.7;97.1
74484;SHT31;62942;52.462;10.846;2022-08-27T04:53:54;18.7;97.1
74484;SHT31;62942;52.462;10.846;2022-08-27T04:54:54;18.7;97.2
74484;SHT31;62942;52.462;10.846;2022-08-27T04:56:04;18.7;97.1
74484;SHT31;62942;52.462;10.846;2022-08-27T04:57:05;18.7;97.1
74484;SHT31;62942;52.462;10.846;2022-08-27T04:58:04;18.7;97.2
74484;SHT31;62942;52.462;10.846;2022-08-27T04:59:14;18.7;97.1
74484;SHT31;62942;52.462;10.846;2022-08-27T05:00:14;18.7;97.2
74484;SHT31;62942;52.462;10.846;2022-08-27T05:01:25;18.7;97.1
74484;SHT31;62942;52.462;10.846;2022-08-27T05:02:24;18.7;97.1
74484;SHT31;62942;52.462;10.846;2022-08-27T05:03:34;18.7;97.1
74484;SHT31;62942;52.462;10.846;2022-08-27T05:04:44;18.7;97.2
74484;SHT31;62942;52.462;10.846;2022-08-27T05:05:57;18.8;97.2
74484;SHT31;62942;52.462;10.846;2022-08-27T05:07:05;18.8;97.1
74484;SHT31;62942;52.462;10.846;2022-08-27T05:08:14;18.8;97.1
74484;SHT31;62942;52.462;10.846;2022-08-27T05:09:15;18.8;97
74484;SHT31;62942;52.462;10.846;2022-08-27T05:10:24;18.8;97
74484;SHT31;62942;52.462;10.846;2022-08-27T05:11:34;18.8;97.1
74484;SHT31;62942;52.462;10.846;2022-08-27T05:12:44;18.8;97
74484;SHT31;62942;52.462;10.846;2022-08-27T05:13:54;18.8;96.9
74484;SHT31;62942;52.462;10.846;2022-08-27T05:15:05;18.8;96.9
74484;SHT31;62942;52.462;10.846;2022-08-27T05:16:15;18.8;96.9
74484;SHT31;62942;52.462;10.846;2022-08-27T05:17:24;18.8;96.9
74484;SHT31;62942;52.462;10.846;2022-08-27T05:18:24;18.8;96.9
74484;SHT31;62942;52.462;10.846;2022-08-27T05:19:34;18.8;96.9
74484;SHT31;62942;52.462;10.846;2022-08-27T05:20:45;18.8;96.9
74484;SHT31;62942;52.462;10.846;2022-08-27T05:21:54;18.8;96.9
74484;SHT31;62942;52.462;10.846;2022-08-27T05:23:04;18.8;96.8
74484;SHT31;62942;52.462;10.846;2022-08-27T05:24:15;18.8;96.8
74484;SHT31;62942;52.462;10.846;2022-08-27T05:25:25;18.9;96.8
74484;SHT31;62942;52.462;10.846;2022-08-27T05:26:35;18.9;96.8
74484;SHT31;62942;52.462;10.846;2022-08-27T05:27:44;18.9;96.7
74484;SHT31;62942;52.462;10.846;2022-08-27T05:28:54;18.8;96.6
74484;SHT31;62942;52.462;10.846;2022-08-27T05:30:05;18.8;96.6
74484;SHT31;62942;52.462;10.846;2022-08-27T05:31:14;18.8;96.5
74484;SHT31;62942;52.462;10.846;2022-08-27T05:32:24;18.8;96.6
74484;SHT31;62942;52.462;10.846;2022-08-27T05:33:35;18.8;96.7
74484;SHT31;62942;52.462;10.846;2022-08-27T05:34:44;18.8;96.6
74484;SHT31;62942;52.462;10.846;2022-08-27T05:35:55;18.8;96.6
74484;SHT31;62942;52.462;10.846;2022-08-27T05:37:04;18.8;96.7
74484;SHT31;62942;52.462;10.846;2022-08-27T05:38:15;18.8;96.7
74484;SHT31;62942;52.462;10.846;2022-08-27T05:39:24;18.8;96.7
74484;SHT31;62942;52.462;10.846;2022-08-27T05:40:24;18.8;96.7
74484;SHT31;62942;52.462;10.846;2022-08-27T05:41:34;18.8;96.9
74484;SHT31;62942;52.462;10.846;2022-08-27T05:42:44;18.8;96.8
74484;SHT31;62942;52.462;10.846;2022-08-27T05:43:55;18.8;96.7
74484;SHT31;62942;52.462;10.846;2022-08-27T05:45:04;18.8;96.7
74484;SHT31;62942;52.462;10.846;2022-08-27T05:46:15;18.8;96.7
74484;SHT31;62942;52.462;10.846;2022-08-27T05:47:24;18.8;96.8
74484;SHT31;62942;52.462;10.846;2022-08-27T05:48:24;18.8;96.7
74484;SHT31;62942;52.462;10.846;2022-08-27T05:49:34;18.8;96.7
74484;SHT31;62942;52.462;10.846;2022-08-27T05:50:44;18.8;96.8
74484;SHT31;62942;52.462;10.846;2022-08-27T05:51:44;18.8;96.7
74484;SHT31;62942;52.462;10.846;2022-08-27T05:52:54;18.8;96.7
74484;SHT31;62942;52.462;10.846;2022-08-27T05:54:05;18.8;96.9
74484;SHT31;62942;52.462;10.846;2022-08-27T05:55:04;18.8;96.8
74484;SHT31;62942;52.462;10.846;2022-08-27T05:56:16;18.8;96.7
74484;SHT31;62942;52.462;10.846;2022-08-27T05:57:24;18.8;96.8
74484;SHT31;62942;52.462;10.846;2022-08-27T05:58:34;18.8;96.8
74484;SHT31;62942;52.462;10.846;2022-08-27T05:59:34;18.8;96.7
74484;SHT31;62942;52.462;10.846;2022-08-27T06:00:44;18.8;96.7
74484;SHT31;62942;52.462;10.846;2022-08-27T06:01:45;18.8;96.8
74484;SHT31;62942;52.462;10.846;2022-08-27T06:02:54;18.8;96.8
74484;SHT31;62942;52.462;10.846;2022-08-27T06:04:04;18.8;96.8
74484;SHT31;62942;52.462;10.846;2022-08-27T06:05:04;18.8;96.9
74484;SHT31;62942;52.462;10.846;2022-08-27T06:06:14;18.8;97
74484;SHT31;62942;52.462;10.846;2022-08-27T06:07:14;18.8;97
74484;SHT31;62942;52.462;10.846;2022-08-27T06:08:24;18.8;96.9
74484;SHT31;62942;52.462;10.846;2022-08-27T06:09:34;18.8;97
74484;SHT31;62942;52.462;10.846;2022-08-27T06:10:44;18.7;97
74484;SHT31;62942;52.462;10.846;2022-08-27T06:11:45;18.8;97.1
74484;SHT31;62942;52.462;10.846;2022-08-27T06:12:54;18.7;96.9
74484;SHT31;62942;52.462;10.846;2022-08-27T06:13:54;18.7;97
74484;SHT31;62942;52.462;10.846;2022-08-27T06:15:04;18.7;96.8
74484;SHT31;62942;52.462;10.846;2022-08-27T06:16:05;18.7;97.1
74484;SHT31;62942;52.462;10.846;2022-08-27T06:17:14;18.7;96.9
74484;SHT31;62942;52.462;10.846;2022-08-27T06:18:14;18.7;97
74484;SHT31;62942;52.462;10.846;2022-08-27T06:19:24;18.7;97
74484;SHT31;62942;52.462;10.846;2022-08-27T06:20:24;18.7;97
74484;SHT31;62942;52.462;10.846;2022-08-27T06:21:34;18.7;97
74484;SHT31;62942;52.462;10.846;2022-08-27T06:22:44;18.7;96.9
74484;SHT31;62942;52.462;10.846;2022-08-27T06:23:54;18.7;97
74484;SHT31;62942;52.462;10.846;2022-08-27T06:24:54;18.7;97
74484;SHT31;62942;52.462;10.846;2022-08-27T06:26:04;18.7;97.2
74484;SHT31;62942;52.462;10.846;2022-08-27T06:27:04;18.7;97.1
74484;SHT31;62942;52.462;10.846;2022-08-27T06:28:14;18.7;97
74484;SHT31;62942;52.462;10.846;2022-08-27T06:29:14;18.6;96.9
74484;SHT31;62942;52.462;10.846;2022-08-27T06:30:24;18.6;97
74484;SHT31;62942;52.462;10.846;2022-08-27T06:31:25;18.6;97
74484;SHT31;62942;52.462;10.846;2022-08-27T06:32:34;18.6;97.2
74484;SHT31;62942;52.462;10.846;2022-08-27T06:33:44;18.6;97.2
74484;SHT31;62942;52.462;10.846;2022-08-27T06:34:54;18.6;97.1
74484;SHT31;62942;52.462;10.846;2022-08-27T06:36:05;18.6;97.1
74484;SHT31;62942;52.462;10.846;2022-08-27T06:37:14;18.6;97.1
74484;SHT31;62942;52.462;10.846;2022-08-27T06:38:24;18.6;97
74484;SHT31;62942;52.462;10.846;2022-08-27T06:39:35;18.6;97.1
74484;SHT31;62942;52.462;10.846;2022-08-27T06:40:34;18.6;96.9
74484;SHT31;62942;52.462;10.846;2022-08-27T06:41:44;18.6;97.2
74484;SHT31;62942;52.462;10.846;2022-08-27T06:42:44;18.6;97.1
74484;SHT31;62942;52.462;10.846;2022-08-27T06:43:55;18.6;97.2
74484;SHT31;62942;52.462;10.846;2022-08-27T06:45:04;18.6;97.1
74484;SHT31;62942;52.462;10.846;2022-08-27T06:46:15;18.6;97
74484;SHT31;62942;52.462;10.846;2022-08-27T06:47:14;18.6;97
74484;SHT31;62942;52.462;10.846;2022-08-27T06:48:24;18.6;96.9
74484;SHT31;62942;52.462;10.846;2022-08-27T06:49:34;18.6;97
74484;SHT31;62942;52.462;10.846;2022-08-27T06:50:44;18.6;97
74484;SHT31;62942;52.462;10.846;2022-08-27T06:51:45;18.6;97
74484;SHT31;62942;52.462;10.846;2022-08-27T06:52:54;18.6;96.9
74484;SHT31;62942;52.462;10.846;2022-08-27T06:53:55;18.6;96.9
74484;SHT31;62942;52.462;10.846;2022-08-27T06:55:04;18.6;96.9
74484;SHT31;62942;52.462;10.846;2022-08-27T06:56:15;18.6;97
74484;SHT31;62942;52.462;10.846;2022-08-27T06:57:14;18.6;97
74484;SHT31;62942;52.462;10.846;2022-08-27T06:58:24;18.6;97.1
74484;SHT31;62942;52.462;10.846;2022-08-27T06:59:24;18.6;96.8
74484;SHT31;62942;52.462;10.846;2022-08-27T07:00:34;18.6;96.7
74484;SHT31;62942;52.462;10.846;2022-08-27T07:01:36;18.7;96.5
74484;SHT31;62942;52.462;10.846;2022-08-27T07:02:44;18.6;96.7
74484;SHT31;62942;52.462;10.846;2022-08-27T07:03:44;18.7;96.7
74484;SHT31;62942;52.462;10.846;2022-08-27T07:04:54;18.6;96.5
74484;SHT31;62942;52.462;10.846;2022-08-27T07:06:01;18.6;96.5
74484;SHT31;62942;52.462;10.846;2022-08-27T07:07:04;18.6;96.6
74484;SHT31;62942;52.462;10.846;2022-08-27T07:08:04;18.6;96.5